createdAt,value
2018-07-19T07:17:41.120Z,100371.91
2018-07-19T11:17:27.462Z,100313.36
2018-07-19T11:20:45.979Z,100301.29
2018-07-19T11:35:24.546Z,100297.33
2018-07-19T11:39:23.182Z,100299.78
2018-07-19T11:46:20.406Z,100285.36
2018-07-19T11:58:26.694Z,100276.81
2018-07-19T12:12:04.431Z,100261.02
2018-07-19T12:21:31.399Z,100267.02
2018-07-19T12:33:54.849Z,100245.70
2018-07-19T12:37:00.850Z,100243.20
2018-07-19T12:40:06.334Z,100250.16
2018-07-19T12:43:14.189Z,100248.44
2018-07-19T12:46:29.652Z,100248.89
2018-07-19T12:52:59.146Z,100244.08
2018-07-19T12:56:30.257Z,100245.02
2018-07-19T12:59:38.244Z,100239.77
2018-07-19T13:03:11.434Z,100244.91
2018-07-19T13:13:45.496Z,100246.93
2018-07-19T13:17:02.134Z,100244.88
2018-07-19T13:40:31.970Z,100232.59
2018-07-19T14:28:33.830Z,100205.06
2018-07-19T14:31:37.653Z,100206.53
2018-07-19T14:34:46.583Z,100208.02
2018-07-19T14:37:56.033Z,100201.69
2018-07-19T14:41:03.823Z,100201.22
2018-07-19T14:44:11.674Z,100204.16
2018-07-19T14:47:15.794Z,100202.45
2018-07-19T14:50:19.248Z,100202.08
2018-07-19T14:53:22.862Z,100200.80
2018-07-19T14:56:27.143Z,100201.59
2018-07-19T14:59:31.080Z,100195.63
2018-07-19T15:02:35.010Z,100180.73
2018-07-19T15:05:38.998Z,100184.47
2018-07-19T15:08:42.499Z,100180.13
2018-07-19T15:11:46.148Z,100180.55
2018-07-19T15:14:49.808Z,100174.12
2018-07-19T15:17:54.530Z,100171.31
2018-07-19T15:20:58.410Z,100170.87
2018-07-19T15:24:02.102Z,100172.41
2018-07-19T15:27:05.872Z,100162.03
2018-07-19T15:30:09.495Z,100154.61
2018-07-19T15:33:13.229Z,100156.87
2018-07-19T15:36:16.721Z,100156.94
2018-07-19T15:39:20.159Z,100154.50
2018-07-19T15:42:23.644Z,100153.85
2018-07-19T15:45:27.206Z,100150.22
2018-07-19T15:48:30.657Z,100147.60
2018-07-19T15:51:34.116Z,100146.53
2018-07-19T15:54:37.591Z,100141.32
2018-07-19T15:57:41.002Z,100140.89
2018-07-19T16:00:44.514Z,100135.04
2018-07-19T16:03:47.855Z,100129.63
2018-07-19T16:06:51.219Z,100122.98
2018-07-19T16:09:54.564Z,100122.16
2018-07-19T16:12:57.916Z,100123.50
2018-07-19T16:16:01.231Z,100120.98
2018-07-19T16:19:04.746Z,100115.82
2018-07-19T16:22:08.200Z,100119.95
2018-07-19T16:25:11.714Z,100112.30
2018-07-19T16:28:15.102Z,100114.61
2018-07-19T16:31:18.641Z,100106.25
2018-07-19T16:34:21.992Z,100105.53
2018-07-19T16:37:25.373Z,100100.08
2018-07-19T16:40:28.786Z,100099.38
2018-07-19T16:43:32.121Z,100096.37
2018-07-19T16:46:35.570Z,100093.55
2018-07-19T16:49:38.991Z,100089.50
2018-07-19T16:52:42.309Z,100089.00
2018-07-19T16:55:45.773Z,100089.00
2018-07-19T16:58:49.280Z,100096.67
2018-07-19T17:01:57.393Z,100101.23
2018-07-19T17:05:01.402Z,100092.31
2018-07-19T17:08:04.974Z,100091.72
2018-07-19T17:11:08.437Z,100096.75
2018-07-19T17:14:11.872Z,100085.60
2018-07-19T17:17:15.251Z,100087.55
2018-07-19T17:20:18.950Z,100093.25
2018-07-19T17:23:22.458Z,100092.33
2018-07-19T17:26:26.102Z,100088.75
2018-07-19T17:29:30.193Z,100087.64
2018-07-19T17:32:34.445Z,100084.50
2018-07-19T17:35:39.648Z,100086.55
2018-07-19T17:41:58.008Z,100082.91
2018-07-19T17:45:06.769Z,100079.33
2018-07-19T17:48:10.745Z,100084.67
2018-07-19T17:51:16.204Z,100086.70
2018-07-19T17:54:25.366Z,100086.66
2018-07-19T17:57:30.426Z,100085.88
2018-07-19T18:00:34.787Z,100078.16
2018-07-19T18:03:38.803Z,100066.12
2018-07-19T18:06:45.198Z,100063.80
2018-07-19T18:09:49.576Z,100066.69
2018-07-19T18:12:54.009Z,100071.23
2018-07-19T18:15:57.818Z,100062.44
2018-07-19T18:19:01.517Z,100063.56
2018-07-19T18:22:05.650Z,100070.41
2018-07-19T18:25:10.855Z,100066.83
2018-07-19T18:28:14.368Z,100067.38
2018-07-19T18:31:17.884Z,100069.88
2018-07-19T18:34:21.555Z,100068.44
2018-07-19T18:37:25.346Z,100064.79
2018-07-19T18:40:29.083Z,99984.62
2018-07-19T18:43:32.933Z,100067.06
2018-07-19T18:46:41.200Z,100063.48
2018-07-19T18:49:48.263Z,100065.27
2018-07-19T18:52:59.263Z,100062.61
2018-07-19T18:56:03.141Z,100055.51
2018-07-19T18:59:07.367Z,100059.32
2018-07-19T19:02:16.371Z,100066.16
2018-07-19T19:05:20.058Z,100062.83
2018-07-19T19:08:23.580Z,100064.28
2018-07-19T19:11:27.227Z,100065.47
2018-07-19T19:14:32.901Z,100057.61
2018-07-19T19:17:37.709Z,100062.50
2018-07-19T19:20:41.600Z,100060.86
2018-07-19T19:23:45.791Z,100062.27
2018-07-19T19:26:54.393Z,100071.97
2018-07-19T19:30:00.067Z,100071.67
2018-07-19T19:33:09.669Z,100070.08
2018-07-19T19:36:14.773Z,100077.45
2018-07-19T19:39:19.653Z,100077.26
2018-07-19T19:42:23.189Z,100076.95
2018-07-19T19:45:27.049Z,100074.38
2018-07-19T19:48:34.384Z,100075.73
2018-07-19T19:51:38.188Z,100077.05
2018-07-19T19:54:41.989Z,100085.38
2018-07-19T19:57:46.981Z,100082.81
2018-07-19T20:00:50.957Z,100086.43
2018-07-19T20:03:54.916Z,100085.46
2018-07-19T20:06:58.697Z,100088.81
2018-07-19T20:10:02.370Z,100087.11
2018-07-19T20:13:07.513Z,100083.64
2018-07-19T20:16:12.230Z,100083.67
2018-07-19T20:19:36.658Z,100078.73
2018-07-19T20:23:13.171Z,100087.85
2018-07-19T20:26:19.538Z,100086.36
2018-07-19T20:29:41.424Z,100084.41
2018-07-19T20:32:50.670Z,100088.94
2018-07-19T20:36:01.546Z,100079.09
2018-07-19T20:39:07.898Z,100079.09
2018-07-19T20:43:57.282Z,100078.37
2018-07-19T20:47:06.800Z,100080.05
2018-07-19T20:50:10.297Z,100081.73
2018-07-19T20:53:16.613Z,100075.59
2018-07-19T20:56:26.990Z,100080.73
2018-07-19T20:59:31.742Z,100074.94
2018-07-19T21:02:36.374Z,100080.45
2018-07-19T21:05:40.291Z,100078.92
2018-07-19T21:08:43.794Z,100076.20
2018-07-19T21:11:51.742Z,100078.67
2018-07-19T21:14:57.142Z,100079.75
2018-07-19T21:18:16.332Z,100080.00
2018-07-19T21:21:25.159Z,100075.81
2018-07-19T21:25:00.230Z,100075.94
2018-07-19T21:28:19.883Z,100070.67
2018-07-19T21:32:20.281Z,100081.44
2018-07-19T21:36:40.958Z,100080.55
2018-07-19T21:39:54.747Z,100084.59
2018-07-19T21:43:06.289Z,100076.05
2018-07-19T21:46:19.758Z,100068.41
2018-07-19T21:49:47.186Z,100072.81
2018-07-19T21:53:01.345Z,100071.97
